Time;durP1;ratioP1;P1;durP2;ratioP2;P2;SDS_P1;SDS_P2;PMS_P1;PMS_P2;Temp;Humidity;BMP_temperature;BMP_pressure;BME280_temperature;BME280_humidity;BME280_pressure;Samples;Min_cycle;Max_cycle;Signal;HPM_P1;HPM_P2
2023/09/03 00:02:22;;;;;;;3.30;2.70;;;;;;;-143.84;54.45;45039.53;5127108;27;20962;-56
2023/09/03 00:04:49;;;;;;;3.00;2.70;;;;;;;-143.84;55.14;45049.06;5126673;27;20991;-56
2023/09/03 00:07:16;;;;;;;3.33;3.10;;;;;;;-143.84;55.49;45035.75;5123662;27;20492;-56
2023/09/03 00:09:44;;;;;;;5.50;3.17;;;;;;;-143.84;55.51;45058.59;5125229;27;20454;-56
2023/09/03 00:12:12;;;;;;;3.57;3.27;;;;;;;-143.84;56.03;45039.53;5123894;27;20818;-53
2023/09/03 00:14:39;;;;;;;4.70;2.50;;;;;;;-143.84;56.38;45049.06;5122383;27;20469;-53
2023/09/03 00:17:06;;;;;;;3.00;2.80;;;;;;;-143.84;56.98;45028.13;5124026;27;20442;-52
2023/09/03 00:19:33;;;;;;;5.80;2.80;;;;;;;-143.84;57.48;45060.50;5121866;27;20951;-52
2023/09/03 00:22:01;;;;;;;3.30;3.03;;;;;;;-143.84;57.87;45071.91;5124587;27;20577;-53
2023/09/03 00:24:28;;;;;;;6.63;3.43;;;;;;;-143.84;58.39;45047.16;5123364;27;20496;-53
2023/09/03 00:26:57;;;;;;;3.00;2.80;;;;;;;-143.84;58.84;45037.66;5123654;27;20563;-52
2023/09/03 00:29:26;;;;;;;3.73;3.43;;;;;;;-143.84;58.99;45047.16;5119081;27;20447;-53
2023/09/03 00:31:53;;;;;;;3.50;3.20;;;;;;;-143.84;59.43;45039.53;5120870;27;20448;-53
2023/09/03 00:34:21;;;;;;;7.67;2.90;;;;;;;-143.84;59.24;45054.78;5127915;27;20450;-52
2023/09/03 00:36:48;;;;;;;3.23;2.93;;;;;;;-143.84;59.54;45033.84;5125227;27;20948;-52
2023/09/03 00:39:15;;;;;;;4.93;2.83;;;;;;;-143.84;59.16;45041.44;5122405;27;20511;-52
2023/09/03 00:41:42;;;;;;;5.50;3.10;;;;;;;-143.84;59.28;45039.53;5120729;27;20451;-53
2023/09/03 00:44:09;;;;;;;3.30;2.90;;;;;;;-143.84;59.21;45071.91;5125893;27;20469;-53
2023/09/03 00:46:38;;;;;;;2.70;2.60;;;;;;;-143.84;59.30;45045.25;5120289;27;20806;-53
2023/09/03 00:49:05;;;;;;;8.87;3.00;;;;;;;-143.84;59.47;45026.22;5121841;27;20506;-53
2023/09/03 00:51:33;;;;;;;3.63;3.03;;;;;;;-143.84;59.26;45066.22;5118876;27;21218;-53
2023/09/03 00:54:02;;;;;;;3.70;2.50;;;;;;;-143.84;59.16;45066.22;5122706;27;20444;-52
2023/09/03 00:56:29;;;;;;;3.10;2.90;;;;;;;-143.84;58.93;45045.25;5123324;27;20458;-53
2023/09/03 00:58:57;;;;;;;5.23;2.70;;;;;;;-143.84;58.67;45031.94;5121114;27;20817;-52
2023/09/03 01:01:24;;;;;;;3.70;2.60;;;;;;;-143.84;58.21;45043.34;5125907;27;20442;-53
2023/09/03 01:03:53;;;;;;;3.60;3.30;;;;;;;-143.84;58.79;45064.31;5121589;27;20495;-53
2023/09/03 01:06:20;;;;;;;3.00;2.80;;;;;;;-143.84;58.42;45024.31;5125020;27;20945;-53
2023/09/03 01:08:47;;;;;;;3.10;2.90;;;;;;;-143.84;58.60;45043.34;5122865;27;21037;-53
2023/09/03 01:11:30;;;;;;;3.27;3.07;;;;;;;-143.84;58.53;45068.13;5122175;27;20442;-53
2023/09/03 01:14:16;;;;;;;2.40;2.27;;;;;;;-143.84;58.79;45043.34;5123440;27;20510;-53
2023/09/03 01:16:49;;;;;;;4.00;3.30;;;;;;;-143.84;58.36;45075.72;5121661;27;20442;-52
2023/09/03 01:19:39;;;;;;;7.23;2.97;;;;;;;-143.84;58.61;45056.69;5117755;27;20442;-53
2023/09/03 01:22:17;;;;;;;3.10;2.80;;;;;;;-143.84;58.13;45041.44;5119506;27;20870;-53
2023/09/03 01:25:04;;;;;;;3.43;3.10;;;;;;;-143.84;57.78;45054.78;5117700;27;20490;-53
2023/09/03 01:27:47;;;;;;;4.53;3.40;;;;;;;-143.84;57.85;45060.50;5119072;27;20535;-53
2023/09/03 01:30:18;;;;;;;3.30;3.00;;;;;;;-143.84;57.82;45030.03;5122321;27;20435;-53
2023/09/03 01:32:47;;;;;;;3.03;2.83;;;;;;;-143.84;57.54;45060.50;5125235;27;20877;-53
2023/09/03 01:35:15;;;;;;;3.40;2.70;;;;;;;-143.84;58.10;45039.53;5121894;27;20511;-52
2023/09/03 01:37:42;;;;;;;9.90;3.23;;;;;;;-143.84;58.67;45052.88;5124678;27;20527;-53
2023/09/03 01:40:10;;;;;;;5.70;3.53;;;;;;;-143.84;59.32;45071.91;5125154;27;20446;-52
2023/09/03 01:42:38;;;;;;;7.80;3.17;;;;;;;-143.84;59.33;45060.50;5123261;27;20856;-53
2023/09/03 01:45:06;;;;;;;5.43;3.20;;;;;;;-143.84;59.67;45066.22;5119643;27;20481;-53
2023/09/03 01:47:42;;;;;;;6.03;3.40;;;;;;;-143.84;59.29;45054.78;5120902;27;20507;-52
2023/09/03 01:50:18;;;;;;;4.83;3.10;;;;;;;-143.84;58.45;45052.88;5120598;27;20457;-53
2023/09/03 01:52:50;;;;;;;4.40;3.93;;;;;;;-143.84;58.42;45041.44;5124841;27;20460;-52
2023/09/03 01:55:20;;;;;;;3.43;3.23;;;;;;;-143.84;57.63;45041.44;5121052;27;20434;-52
2023/09/03 01:57:49;;;;;;;3.17;2.83;;;;;;;-143.84;57.42;45054.78;5119997;27;20462;-52
2023/09/03 02:00:19;;;;;;;3.40;3.20;;;;;;;-143.84;58.38;45049.06;5122856;27;20467;-53
2023/09/03 02:02:49;;;;;;;3.33;3.07;;;;;;;-143.84;58.52;45062.41;5120772;27;20458;-52
2023/09/03 02:05:16;;;;;;;4.20;3.80;;;;;;;-143.84;59.25;45030.03;5119297;27;20473;-52
2023/09/03 02:07:44;;;;;;;6.23;3.07;;;;;;;-143.84;59.41;45068.13;5122945;27;21248;-52
2023/09/03 02:10:11;;;;;;;2.73;2.53;;;;;;;-143.84;59.37;45056.69;5124737;27;20446;-53
2023/09/03 02:12:38;;;;;;;5.40;3.40;;;;;;;-143.84;59.32;45039.53;5124762;27;20438;-52
2023/09/03 02:15:06;;;;;;;3.37;3.07;;;;;;;-143.84;59.38;45058.59;5123626;27;20454;-52
2023/09/03 02:17:33;;;;;;;6.57;2.93;;;;;;;-143.84;59.04;45070.00;5117021;27;20443;-52
2023/09/03 02:20:03;;;;;;;5.63;3.30;;;;;;;-143.84;58.87;45083.34;5123938;27;20440;-52
2023/09/03 02:22:30;;;;;;;7.53;3.30;;;;;;;-143.84;58.96;45064.31;5122118;27;20450;-52
2023/09/03 02:24:57;;;;;;;3.50;3.30;;;;;;;-143.84;58.22;45075.72;5118607;28;20952;-52
2023/09/03 02:27:24;;;;;;;6.33;3.57;;;;;;;-143.84;57.73;45089.06;5118777;27;20442;-52
2023/09/03 02:29:51;;;;;;;3.07;2.87;;;;;;;-143.84;57.02;45085.25;5121642;28;20952;-53
2023/09/03 02:32:18;;;;;;;3.70;2.47;;;;;;;-143.84;56.46;45060.50;5121894;28;20511;-52
2023/09/03 02:34:45;;;;;;;3.93;3.63;;;;;;;-143.84;56.22;45075.72;5121170;27;20473;-52
2023/09/03 02:37:14;;;;;;;17.30;3.10;;;;;;;-143.84;56.00;45075.72;5128737;27;20502;-53
2023/09/03 02:39:41;;;;;;;3.20;3.00;;;;;;;-143.84;55.77;45052.88;5124604;27;20792;-52
2023/09/03 02:42:09;;;;;;;3.00;2.80;;;;;;;-143.84;55.77;45041.44;5128453;27;20446;-52
2023/09/03 02:44:36;;;;;;;5.10;2.53;;;;;;;-143.84;55.33;45071.91;5128416;27;20494;-52
2023/09/03 02:47:03;;;;;;;8.17;3.43;;;;;;;-143.84;54.94;45052.88;5122701;27;20489;-52
2023/09/03 02:49:30;;;;;;;4.90;2.80;;;;;;;-143.84;54.78;45068.13;5122108;27;20828;-52
2023/09/03 02:51:57;;;;;;;6.23;3.27;;;;;;;-143.84;54.06;45050.97;5127768;27;20446;-52
2023/09/03 02:54:25;;;;;;;3.37;3.07;;;;;;;-143.84;53.83;45047.16;5128484;27;20446;-52
2023/09/03 02:56:52;;;;;;;6.43;3.00;;;;;;;-143.84;54.41;45030.03;5126097;27;20506;-53
2023/09/03 02:59:20;;;;;;;3.50;2.33;;;;;;;-143.84;53.66;45062.41;5121212;27;20500;-52
2023/09/03 03:01:47;;;;;;;3.40;2.50;;;;;;;-143.84;53.98;45070.00;5121699;27;20552;-52
2023/09/03 03:04:14;;;;;;;4.80;2.90;;;;;;;-143.84;55.04;45047.16;5124524;27;21222;-52
2023/09/03 03:06:41;;;;;;;9.80;2.77;;;;;;;-143.84;55.00;45054.78;5124500;27;20518;-52
2023/09/03 03:09:08;;;;;;;3.37;3.07;;;;;;;-143.84;55.26;45066.22;5126651;27;20452;-52
2023/09/03 03:11:37;;;;;;;5.03;2.97;;;;;;;-143.84;54.74;45087.16;5123237;27;20549;-52
2023/09/03 03:14:04;;;;;;;3.20;3.00;;;;;;;-143.84;55.03;45039.53;5128154;27;20450;-53
2023/09/03 03:16:31;;;;;;;7.97;3.23;;;;;;;-143.84;55.45;45064.31;5124008;27;20454;-52
2023/09/03 03:18:58;;;;;;;3.60;2.73;;;;;;;-143.84;55.48;45075.72;5124734;27;20433;-52
2023/09/03 03:21:25;;;;;;;3.57;2.90;;;;;;;-143.84;55.02;45056.69;5123015;27;20446;-52
2023/09/03 03:23:53;;;;;;;4.33;2.60;;;;;;;-143.84;55.14;45081.44;5121851;27;20481;-53
2023/09/03 03:26:20;;;;;;;3.50;2.70;;;;;;;-143.84;55.45;45064.31;5126883;27;21002;-52
2023/09/03 03:28:50;;;;;;;10.30;2.70;;;;;;;-143.84;55.42;45073.81;5126314;27;20445;-52
2023/09/03 03:31:19;;;;;;;3.30;3.00;;;;;;;-143.84;54.66;45056.69;5124123;27;20442;-52
2023/09/03 03:33:48;;;;;;;2.93;2.50;;;;;;;-143.84;54.54;45043.34;5124663;27;20502;-52
2023/09/03 03:36:16;;;;;;;4.53;2.80;;;;;;;-143.84;54.33;45056.69;5125996;27;20438;-52
2023/09/03 03:38:44;;;;;;;5.03;3.90;;;;;;;-143.84;54.37;45068.13;5120723;27;20441;-53
2023/09/03 03:41:12;;;;;;;7.17;3.23;;;;;;;-143.84;54.10;45070.00;5119287;27;20523;-52
2023/09/03 03:43:41;;;;;;;4.17;3.10;;;;;;;-143.84;54.21;45041.44;5124537;27;20447;-52
2023/09/03 03:46:11;;;;;;;3.83;2.90;;;;;;;-143.84;54.38;45064.31;5120292;27;20539;-53
2023/09/03 03:48:38;;;;;;;5.40;3.00;;;;;;;-143.84;54.12;45100.47;5123908;27;20438;-52
2023/09/03 03:51:05;;;;;;;3.27;2.97;;;;;;;-143.84;54.22;45064.31;5125012;27;20503;-52
2023/09/03 03:53:32;;;;;;;2.93;2.73;;;;;;;-143.84;53.95;45064.31;5123412;27;20438;-53
2023/09/03 03:56:01;;;;;;;3.47;3.17;;;;;;;-143.84;54.18;45041.44;5122317;27;20499;-52
2023/09/03 03:58:30;;;;;;;3.50;3.20;;;;;;;-143.84;54.29;45039.53;5121586;27;20495;-53
2023/09/03 04:00:57;;;;;;;3.90;3.50;;;;;;;-143.84;54.77;45058.59;5122712;27;20488;-53
2023/09/03 04:03:27;;;;;;;2.83;2.63;;;;;;;-143.84;55.11;45049.06;5123799;27;20444;-53
2023/09/03 04:05:58;;;;;;;3.00;2.67;;;;;;;-143.84;55.14;45068.13;5122363;27;20890;-53
2023/09/03 04:08:26;;;;;;;2.73;2.57;;;;;;;-143.84;55.75;45081.44;5123936;27;20492;-53
2023/09/03 04:10:57;;;;;;;3.40;3.10;;;;;;;-143.84;55.77;45073.81;5127069;27;20449;-53
2023/09/03 04:13:25;;;;;;;3.47;3.17;;;;;;;-143.84;55.52;45047.16;5123190;27;20492;-52
2023/09/03 04:15:53;;;;;;;3.13;2.83;;;;;;;-143.84;55.20;45079.53;5121893;27;20442;-52
2023/09/03 04:18:20;;;;;;;11.60;3.63;;;;;;;-143.84;55.15;45050.97;5117374;27;20450;-52
2023/09/03 04:20:51;;;;;;;5.60;2.73;;;;;;;-143.84;54.79;45054.78;5123088;27;20940;-52
2023/09/03 04:23:18;;;;;;;6.60;3.57;;;;;;;-143.84;54.80;45062.41;5124903;27;20526;-52
2023/09/03 04:25:45;;;;;;;3.07;2.77;;;;;;;-143.84;54.28;45033.84;5121106;27;20478;-52
2023/09/03 04:28:13;;;;;;;5.20;2.97;;;;;;;-143.84;53.87;45064.31;5125442;27;20515;-52
2023/09/03 04:30:40;;;;;;;8.60;5.27;;;;;;;-143.84;53.68;45031.94;5124006;27;20502;-52
2023/09/03 04:33:07;;;;;;;9.80;2.80;;;;;;;-143.84;53.39;45049.06;5123045;27;20443;-52
2023/09/03 04:35:35;;;;;;;2.83;2.63;;;;;;;-143.84;52.44;45085.25;5120989;27;20499;-53
2023/09/03 04:38:04;;;;;;;8.40;3.07;;;;;;;-143.84;51.56;45066.22;5127145;27;20510;-53
2023/09/03 04:40:34;;;;;;;13.40;2.70;;;;;;;-143.84;51.36;45022.41;5124940;27;20446;-52
2023/09/03 04:43:01;;;;;;;3.10;2.90;;;;;;;-143.84;50.84;45062.41;5122755;27;20624;-53
2023/09/03 04:45:29;;;;;;;2.93;2.73;;;;;;;-143.84;50.48;45071.91;5120019;27;21064;-53
2023/09/03 04:47:56;;;;;;;6.60;2.93;;;;;;;-143.84;49.77;45045.25;5125867;27;20449;-53
2023/09/03 04:50:23;;;;;;;2.83;2.63;;;;;;;-143.84;47.92;45037.66;5121483;27;20452;-53
2023/09/03 04:52:50;;;;;;;4.77;2.90;;;;;;;-143.84;46.45;45028.13;5124815;27;20507;-53
2023/09/03 04:55:19;;;;;;;6.07;3.10;;;;;;;-143.84;44.93;45026.22;5122701;27;20514;-53
2023/09/03 04:57:46;;;;;;;4.20;2.80;;;;;;;-143.84;44.63;45039.53;5122793;27;20508;-53
2023/09/03 05:00:14;;;;;;;3.63;3.10;;;;;;;-143.84;43.48;45024.31;5125985;27;20446;-53
2023/09/03 05:02:42;;;;;;;3.73;2.30;;;;;;;-143.84;42.57;45016.69;5125933;27;20453;-53
2023/09/03 05:05:09;;;;;;;2.33;2.23;;;;;;;-143.84;41.68;44997.66;5123185;27;20434;-53
2023/09/03 05:07:36;;;;;;;6.33;2.47;;;;;;;-143.84;40.45;44986.22;5121766;27;20471;-53
2023/09/03 05:10:04;;;;;;;3.63;2.63;;;;;;;-143.84;39.67;44999.56;5121321;27;20905;-55
2023/09/03 05:12:34;;;;;;;4.83;2.70;;;;;;;-143.84;39.35;44997.66;5129155;27;20434;-56
2023/09/03 05:15:01;;;;;;;3.03;2.50;;;;;;;-143.84;39.17;44972.91;5121289;27;20447;-55
2023/09/03 05:17:28;;;;;;;3.67;2.37;;;;;;;-143.84;38.69;45007.19;5118907;27;20447;-55
2023/09/03 05:19:55;;;;;;;3.43;3.13;;;;;;;-143.84;38.18;44978.63;5122403;27;20443;-55
2023/09/03 05:22:22;;;;;;;7.57;3.23;;;;;;;-143.84;37.61;44982.41;5118044;27;20881;-55
2023/09/03 05:24:49;;;;;;;3.07;2.87;;;;;;;-143.84;37.30;44963.38;5122356;27;20843;-55
2023/09/03 05:27:16;;;;;;;4.03;3.13;;;;;;;-143.84;37.04;44948.16;5114871;27;20479;-55
2023/09/03 05:29:45;;;;;;;2.80;2.60;;;;;;;-143.84;36.62;44967.19;5116111;27;20445;-55
2023/09/03 05:32:12;;;;;;;4.77;3.17;;;;;;;-143.84;36.59;44927.19;5130197;27;20499;-55
2023/09/03 05:34:39;;;;;;;5.40;2.97;;;;;;;-143.84;36.07;44963.38;5118107;27;20442;-55
2023/09/03 05:37:06;;;;;;;3.40;3.17;;;;;;;-143.84;35.87;44931.00;5126520;27;20439;-55
2023/09/03 05:39:33;;;;;;;2.80;2.70;;;;;;;-143.84;35.58;44955.75;5128394;27;20494;-55
2023/09/03 05:42:00;;;;;;;3.23;2.43;;;;;;;-143.84;35.16;44942.44;5120066;27;20447;-55
2023/09/03 05:44:28;;;;;;;3.40;3.20;;;;;;;-143.84;34.97;44950.06;5114432;27;20779;-55
2023/09/03 05:46:56;;;;;;;7.80;6.10;;;;;;;-143.84;34.92;44931.00;5121156;27;20493;-55
2023/09/03 05:49:23;;;;;;;9.33;6.93;;;;;;;-143.84;34.42;44925.31;5125387;27;20488;-55
2023/09/03 05:51:50;;;;;;;7.50;5.00;;;;;;;-143.84;34.45;44953.88;5126938;27;20442;-54
2023/09/03 05:54:17;;;;;;;4.70;4.00;;;;;;;-143.84;34.69;44936.72;5123855;27;20831;-55
2023/09/03 05:56:44;;;;;;;7.90;3.83;;;;;;;-143.84;34.70;44929.09;5118625;27;20454;-55
2023/09/03 05:59:13;;;;;;;2.70;2.50;;;;;;;-143.84;34.03;44910.06;5124441;27;20792;-55
2023/09/03 06:01:40;;;;;;;7.90;3.07;;;;;;;-143.84;33.74;44929.09;5127293;27;20499;-55
2023/09/03 06:04:13;;;;;;;4.37;3.63;;;;;;;-143.84;34.34;44904.34;5111908;28;20469;-55
2023/09/03 06:06:41;;;;;;;3.67;2.67;;;;;;;-143.84;33.91;44927.19;5121631;27;20574;-55
2023/09/03 06:09:08;;;;;;;4.10;3.50;;;;;;;-143.84;34.09;44906.25;5113908;28;20528;-55
2023/09/03 06:11:36;;;;;;;3.00;2.80;;;;;;;-143.84;33.30;44896.75;5125387;27;20786;-55
2023/09/03 06:14:03;;;;;;;3.67;2.20;;;;;;;-143.84;33.84;44906.25;5121377;27;20447;-55
2023/09/03 06:16:30;;;;;;;3.20;2.83;;;;;;;-143.84;33.62;44919.59;5128225;27;20453;-55
2023/09/03 06:18:57;;;;;;;2.20;2.10;;;;;;;-143.84;33.30;44908.16;5123990;27;20455;-55
2023/09/03 06:21:26;;;;;;;5.77;2.23;;;;;;;-143.84;33.61;44898.66;5120495;27;20446;-55
2023/09/03 06:23:54;;;;;;;3.07;2.63;;;;;;;-143.84;33.71;44911.97;5117900;27;20458;-55
2023/09/03 06:26:21;;;;;;;4.50;2.40;;;;;;;-143.84;33.03;44908.16;5118561;28;20925;-55
2023/09/03 06:28:48;;;;;;;5.83;2.50;;;;;;;-143.84;33.40;44892.94;5122843;27;20450;-55
2023/09/03 06:31:16;;;;;;;7.50;2.60;;;;;;;-143.84;33.28;44856.75;5122547;27;20439;-55
2023/09/03 06:33:45;;;;;;;2.70;2.17;;;;;;;-143.84;33.51;44885.31;5128477;27;20473;-55
2023/09/03 06:36:12;;;;;;;3.20;2.07;;;;;;;-143.84;33.11;44902.44;5125951;28;20450;-55
2023/09/03 06:38:43;;;;;;;6.80;2.63;;;;;;;-143.84;32.71;44896.75;5115883;28;20530;-55
2023/09/03 06:41:11;;;;;;;2.80;2.00;;;;;;;-143.84;33.29;44864.38;5113745;28;20522;-55
2023/09/03 06:43:38;;;;;;;2.67;2.47;;;;;;;-143.84;32.73;44864.38;5116130;28;20840;-55
2023/09/03 06:46:05;;;;;;;5.13;2.30;;;;;;;-143.84;32.59;44894.84;5122778;27;20450;-56
2023/09/03 06:48:32;;;;;;;2.30;2.10;;;;;;;-143.84;33.71;44877.69;5114995;28;20447;-56
2023/09/03 06:50:59;;;;;;;2.50;2.30;;;;;;;-143.84;33.06;44858.66;5121343;27;20452;-56
2023/09/03 06:53:26;;;;;;;4.97;2.80;;;;;;;-143.84;33.00;44873.88;5130326;27;20911;-56
2023/09/03 06:55:55;;;;;;;3.33;2.60;;;;;;;-143.84;32.75;44875.78;5130471;27;20438;-56
2023/09/03 06:58:22;;;;;;;3.83;2.37;;;;;;;-143.84;33.17;44828.19;5110764;27;20993;-56
2023/09/03 07:00:49;;;;;;;3.97;2.37;;;;;;;-143.84;32.60;44892.94;5110105;28;20445;-56
2023/09/03 07:03:16;;;;;;;2.90;2.70;;;;;;;-143.84;32.71;44879.59;5110023;28;20438;-56
2023/09/03 07:05:43;;;;;;;3.07;2.20;;;;;;;-143.84;33.33;44881.50;5109915;28;20442;-56
2023/09/03 07:08:11;;;;;;;2.73;2.50;;;;;;;-143.84;33.18;44866.28;5109629;28;20475;-56
2023/09/03 07:10:38;;;;;;;2.43;2.17;;;;;;;-143.84;32.03;44839.63;5109855;28;20439;-56
2023/09/03 07:13:06;;;;;;;10.50;3.60;;;;;;;-143.84;31.49;44879.59;5109802;28;21617;-56
2023/09/03 07:15:37;;;;;;;4.50;2.43;;;;;;;-143.84;32.32;44866.28;5109625;28;20439;-56
2023/09/03 07:18:04;;;;;;;2.63;2.43;;;;;;;-143.84;31.53;44862.47;5109397;28;20526;-56
2023/09/03 07:20:31;;;;;;;6.23;2.10;;;;;;;-143.84;31.81;44837.72;5110518;28;20427;-56
2023/09/03 07:22:58;;;;;;;5.83;2.80;;;;;;;-143.84;30.90;44877.69;5113428;28;20427;-56
2023/09/03 07:25:25;;;;;;;2.23;2.13;;;;;;;-143.84;31.46;44856.75;5113280;28;20490;-56
2023/09/03 07:27:52;;;;;;;11.83;2.60;;;;;;;-143.84;31.21;44858.66;5113027;28;20485;-56
2023/09/03 07:30:21;;;;;;;4.73;2.43;;;;;;;-143.84;31.66;44868.19;5113420;28;20913;-56
2023/09/03 07:32:48;;;;;;;2.13;2.00;;;;;;;-143.84;31.27;44856.75;5112675;28;20435;-56
2023/09/03 07:35:15;;;;;;;3.67;2.80;;;;;;;-143.84;31.16;44862.47;5113527;28;20442;-56
2023/09/03 07:37:43;;;;;;;26.03;4.53;;;;;;;-143.84;31.12;44854.84;5113156;28;20916;-56
2023/09/03 07:40:11;;;;;;;24.53;4.30;;;;;;;-143.84;31.10;44845.31;5113221;28;20484;-56
2023/09/03 07:42:38;;;;;;;44.40;6.10;;;;;;;-143.84;31.13;44847.22;5112994;27;20915;-56
2023/09/03 07:45:06;;;;;;;2.60;2.40;;;;;;;-143.84;30.21;44841.53;5117960;27;20446;-56
2023/09/03 07:47:35;;;;;;;2.50;2.30;;;;;;;-143.84;30.42;44854.84;5132888;27;20501;-56
2023/09/03 07:50:02;;;;;;;2.37;2.27;;;;;;;-143.84;29.87;44833.91;5133452;27;20438;-56
2023/09/03 07:52:29;;;;;;;2.73;1.93;;;;;;;-143.84;30.54;44824.38;5133269;27;20443;-56
2023/09/03 07:54:56;;;;;;;6.90;2.27;;;;;;;-143.84;29.47;44824.38;5133266;27;20491;-56
2023/09/03 07:57:23;;;;;;;5.40;2.07;;;;;;;-143.84;29.45;44811.06;5123328;27;20427;-56
2023/09/03 07:59:52;;;;;;;2.37;2.17;;;;;;;-143.84;29.64;44790.13;5112805;28;20435;-56
2023/09/03 08:02:19;;;;;;;5.00;2.27;;;;;;;-143.84;28.62;44814.88;5112632;28;20449;-56
2023/09/03 08:04:47;;;;;;;12.83;3.13;;;;;;;-143.84;29.87;44830.09;5112133;28;20445;-56
2023/09/03 08:07:15;;;;;;;4.20;2.47;;;;;;;-143.84;29.58;44824.38;5112766;28;20478;-56
2023/09/03 08:09:42;;;;;;;35.37;6.33;;;;;;;-143.84;29.85;44837.72;5112486;28;20457;-56
2023/09/03 08:12:09;;;;;;;2.47;2.27;;;;;;;-143.84;29.02;44832.00;5112248;27;20435;-56
2023/09/03 08:14:37;;;;;;;15.77;3.23;;;;;;;-143.84;29.13;44832.00;5112750;28;20431;-56
2023/09/03 08:17:04;;;;;;;2.77;2.37;;;;;;;-143.84;29.06;44805.34;5111942;28;20439;-56
2023/09/03 08:19:31;;;;;;;2.87;2.33;;;;;;;-143.84;29.56;44793.91;5112500;28;20454;-56
2023/09/03 08:22:00;;;;;;;4.60;2.60;;;;;;;-143.84;29.52;44790.13;5112448;28;20435;-56
2023/09/03 08:24:27;;;;;;;3.30;2.80;;;;;;;-143.84;29.65;44774.88;5111904;28;20462;-56
2023/09/03 08:26:54;;;;;;;3.53;3.10;;;;;;;-143.84;30.13;44818.66;5131540;27;20482;-56
2023/09/03 08:29:22;;;;;;;3.57;2.63;;;;;;;-143.84;28.41;44793.91;5132730;27;21006;-56
2023/09/03 08:31:49;;;;;;;4.63;2.40;;;;;;;-143.84;29.30;44778.69;5132130;27;20444;-56
2023/09/03 08:34:16;;;;;;;4.63;2.67;;;;;;;-143.84;28.94;44795.81;5132399;27;20430;-56
2023/09/03 08:36:43;;;;;;;4.00;3.00;;;;;;;-143.84;29.98;44805.34;5130808;27;21264;-56
2023/09/03 08:39:11;;;;;;;2.23;2.03;;;;;;;-143.84;29.63;44809.16;5123461;27;20451;-56
2023/09/03 08:41:40;;;;;;;2.60;2.40;;;;;;;-143.84;28.67;44805.34;5111846;28;20439;-56
2023/09/03 08:44:14;;;;;;;5.50;3.40;;;;;;;-143.84;29.40;44790.13;5111905;28;20434;-56
2023/09/03 08:46:46;;;;;;;2.77;2.20;;;;;;;-143.84;28.65;44788.22;5111944;28;20427;-56
2023/09/03 08:49:15;;;;;;;5.13;2.53;;;;;;;-143.84;28.61;44797.72;5112692;27;20443;-56
2023/09/03 08:51:43;;;;;;;3.00;2.30;;;;;;;-143.84;28.36;44812.97;5124698;27;20534;-57
2023/09/03 08:54:13;;;;;;;2.80;2.50;;;;;;;-143.84;28.17;44805.34;5110202;28;20450;-58
2023/09/03 08:56:40;;;;;;;5.60;2.87;;;;;;;-143.84;28.16;44809.16;5127043;27;20507;-58
2023/09/03 08:59:07;;;;;;;3.37;2.17;;;;;;;-143.84;27.84;44757.75;5131095;27;20490;-58
2023/09/03 09:01:36;;;;;;;3.63;2.00;;;;;;;-143.84;28.10;44809.16;5130936;27;21410;-57
2023/09/03 09:04:05;;;;;;;4.17;2.10;;;;;;;-143.84;28.01;44809.16;5119539;27;20459;-56
2023/09/03 09:06:33;;;;;;;8.80;2.33;;;;;;;-143.84;29.22;44801.53;5111652;28;20435;-56
2023/09/03 09:09:00;;;;;;;2.10;2.00;;;;;;;-143.84;30.07;44805.34;5115800;27;20474;-56
2023/09/03 09:11:35;;;;;;;4.53;2.00;;;;;;;-143.84;30.21;44799.63;5122361;27;20499;-56
2023/09/03 09:14:08;;;;;;;10.70;2.03;;;;;;;-143.84;29.68;44788.22;5132017;27;20862;-56
2023/09/03 09:16:35;;;;;;;2.83;2.63;;;;;;;-143.84;30.27;44792.00;5132050;27;20418;-56
2023/09/03 09:19:03;;;;;;;2.50;2.00;;;;;;;-143.84;28.78;44786.31;5122773;27;20428;-56
2023/09/03 09:21:32;;;;;;;6.37;2.10;;;;;;;-143.84;29.14;44826.28;5118082;27;20450;-56
2023/09/03 09:24:02;;;;;;;6.53;2.27;;;;;;;-143.84;30.47;44858.66;5131650;27;20507;-56
2023/09/03 09:26:33;;;;;;;6.97;1.90;;;;;;;-143.84;30.28;44820.56;5131193;27;20590;-56
2023/09/03 09:29:01;;;;;;;3.30;2.40;;;;;;;-143.84;29.88;44826.28;5131361;27;20474;-56
2023/09/03 09:31:30;;;;;;;5.43;2.20;;;;;;;-143.84;29.98;44803.44;5131415;27;20438;-56
2023/09/03 09:33:59;;;;;;;3.93;2.03;;;;;;;-143.84;30.53;44812.97;5130989;27;20438;-56
2023/09/03 09:36:26;;;;;;;2.40;2.30;;;;;;;-143.84;30.89;44792.00;5131562;27;20514;-56
2023/09/03 09:38:53;;;;;;;2.83;2.30;;;;;;;-143.84;30.98;44835.81;5131226;27;20442;-56
2023/09/03 09:41:25;;;;;;;7.73;2.40;;;;;;;-143.84;33.74;44828.19;5131324;27;20437;-56
2023/09/03 09:43:53;;;;;;;3.73;2.80;;;;;;;-143.84;34.23;44854.84;5130358;27;20442;-56
2023/09/03 09:46:28;;;;;;;6.40;2.63;;;;;;;-143.84;34.85;44851.03;5124292;27;21006;-56
2023/09/03 09:48:56;;;;;;;7.10;2.70;;;;;;;-143.84;35.19;44833.91;5126031;27;20469;-56
2023/09/03 09:51:23;;;;;;;3.10;2.50;;;;;;;-143.84;35.10;44818.66;5131172;27;20529;-56
2023/09/03 09:53:55;;;;;;;8.93;2.70;;;;;;;-143.84;34.97;44830.09;5131235;27;20434;-56
2023/09/03 09:56:27;;;;;;;4.03;2.80;;;;;;;-143.84;34.96;44824.38;5131343;27;20516;-56
2023/09/03 09:58:58;;;;;;;4.60;2.70;;;;;;;-143.84;33.04;44826.28;5131225;27;20453;-56
2023/09/03 10:01:27;;;;;;;3.77;2.23;;;;;;;-143.84;33.48;44851.03;5131216;27;21309;-56
2023/09/03 10:03:54;;;;;;;3.80;2.63;;;;;;;-143.84;34.61;44832.00;5130956;27;20802;-56
2023/09/03 10:06:23;;;;;;;4.57;2.30;;;;;;;-143.84;34.99;44841.53;5131170;27;20983;-56
2023/09/03 10:08:52;;;;;;;3.67;2.33;;;;;;;-143.84;35.35;44871.97;5130887;27;20474;-56
2023/09/03 10:11:20;;;;;;;4.50;2.87;;;;;;;-143.84;35.24;44845.31;5131326;27;20438;-56
2023/09/03 10:13:49;;;;;;;3.30;3.10;;;;;;;-143.84;36.80;44875.78;5116958;27;20801;-56
2023/09/03 10:16:20;;;;;;;3.40;3.10;;;;;;;-143.84;38.14;44866.28;5110239;28;20431;-56
2023/09/03 10:18:48;;;;;;;7.70;2.77;;;;;;;-143.84;39.25;44891.03;5110172;28;20485;-56
2023/09/03 10:21:21;;;;;;;9.87;3.80;;;;;;;-143.84;40.17;44900.53;5110505;28;20434;-56
2023/09/03 10:23:49;;;;;;;4.53;2.90;;;;;;;-143.84;40.66;44866.28;5110181;28;20467;-56
2023/09/03 10:26:22;;;;;;;3.27;3.07;;;;;;;-143.84;41.28;44873.88;5123039;28;21473;-56
2023/09/03 10:28:54;;;;;;;3.20;3.00;;;;;;;-143.84;40.20;44851.03;5131250;27;20534;-56
2023/09/03 10:31:24;;;;;;;3.80;3.27;;;;;;;-143.84;41.22;44871.97;5130980;27;20505;-56
2023/09/03 10:33:52;;;;;;;5.57;2.97;;;;;;;-143.84;41.77;44875.78;5130791;27;20443;-56
2023/09/03 10:36:20;;;;;;;4.60;2.83;;;;;;;-143.84;41.95;44883.41;5120067;27;21309;-56
2023/09/03 10:38:48;;;;;;;3.40;2.87;;;;;;;-143.84;41.68;44862.47;5129561;27;20536;-56
2023/09/03 10:41:21;;;;;;;6.23;3.47;;;;;;;-143.84;41.82;44875.78;5130660;27;20483;-56
2023/09/03 10:43:49;;;;;;;7.90;3.00;;;;;;;-143.84;40.53;44870.09;5130101;27;20968;-56
2023/09/03 10:46:17;;;;;;;3.23;3.03;;;;;;;-143.84;41.45;44877.69;5130188;27;20463;-56
2023/09/03 10:49:03;;;;;;;4.83;2.93;;;;;;;-143.84;40.49;44902.44;5130406;27;20478;-56
2023/09/03 10:51:35;;;;;;;5.33;2.60;;;;;;;-143.84;39.29;44875.78;5130772;27;20422;-56
2023/09/03 10:54:19;;;;;;;3.50;2.70;;;;;;;-143.84;40.06;44873.88;5130720;27;20426;-56
2023/09/03 10:57:17;;;;;;;4.03;3.47;;;;;;;-143.84;41.68;44902.44;5134584;27;20494;-56
2023/09/03 11:00:10;;;;;;;3.77;3.37;;;;;;;-143.84;41.93;44900.53;5130973;27;20959;-56
2023/09/03 11:02:39;;;;;;;4.93;2.40;;;;;;;-143.84;40.27;44887.22;5128297;27;20460;-56
2023/09/03 11:05:16;;;;;;;3.10;2.90;;;;;;;-143.84;40.22;44906.25;5130002;27;20438;-56
2023/09/03 11:07:45;;;;;;;3.63;2.63;;;;;;;-143.84;40.14;44910.06;5120771;27;20502;-56
2023/09/03 11:10:41;;;;;;;2.80;2.60;;;;;;;-143.84;39.19;44896.75;5128480;27;20434;-56
2023/09/03 11:13:12;;;;;;;7.90;3.97;;;;;;;-143.84;40.24;44891.03;5129468;27;20456;-55
2023/09/03 11:15:48;;;;;;;3.73;3.43;;;;;;;-143.84;40.86;44921.50;5122548;27;20446;-56
2023/09/03 11:18:20;;;;;;;3.60;2.80;;;;;;;-143.84;39.81;44904.34;5128975;27;20465;-56
2023/09/03 11:20:49;;;;;;;5.40;3.30;;;;;;;-143.84;39.89;44906.25;5125552;27;20521;-56
2023/09/03 11:23:17;;;;;;;6.60;3.53;;;;;;;-143.84;40.35;44908.16;5129247;27;20449;-56
2023/09/03 11:25:44;;;;;;;2.87;2.67;;;;;;;-143.84;39.07;44906.25;5130495;27;20477;-56